Time;durP1;ratioP1;P1;durP2;ratioP2;P2;SDS_P1;SDS_P2;PMS_P1;PMS_P2;Temp;Humidity;BMP_temperature;BMP_pressure;BME280_temperature;BME280_humidity;BME280_pressure;Samples;Min_cycle;Max_cycle;Signal;HPM_P1;HPM_P2
2022/04/08 00:02:07;;;;;;;20.42;2.78;;;;;;;;;;4990083;28;20612;-70
2022/04/08 00:04:32;;;;;;;9.70;2.55;;;;;;;;;;5001620;28;20026;-69
2022/04/08 00:06:58;;;;;;;18.00;3.65;;;;;;;;;;5002809;28;20018;-70
2022/04/08 00:09:23;;;;;;;13.77;2.80;;;;;;;;;;4994955;28;20113;-70
2022/04/08 00:11:49;;;;;;;23.48;5.40;;;;;;;;;;5003902;28;20053;-70
2022/04/08 00:14:14;;;;;;;15.43;2.70;;;;;;;;;;4994894;28;20437;-70
2022/04/08 00:16:39;;;;;;;16.00;3.20;;;;;;;;;;4998637;28;20034;-70
2022/04/08 00:19:04;;;;;;;16.83;3.28;;;;;;;;;;4993319;28;20038;-70
2022/04/08 00:21:30;;;;;;;16.92;3.80;;;;;;;;;;4997166;28;20026;-70
2022/04/08 00:23:55;;;;;;;16.20;2.60;;;;;;;;;;4993825;28;20398;-70
2022/04/08 00:26:20;;;;;;;13.00;2.50;;;;;;;;;;4998058;28;20030;-70
2022/04/08 00:28:45;;;;;;;17.65;3.33;;;;;;;;;;4993527;28;20772;-70
2022/04/08 00:31:11;;;;;;;14.20;2.25;;;;;;;;;;4996598;28;20030;-70
2022/04/08 00:33:36;;;;;;;11.70;2.40;;;;;;;;;;4993462;28;20058;-70
2022/04/08 00:36:01;;;;;;;7.20;2.08;;;;;;;;;;4999842;28;20025;-70
2022/04/08 00:38:27;;;;;;;7.20;1.90;;;;;;;;;;4995733;28;20486;-70
2022/04/08 00:40:52;;;;;;;7.00;1.55;;;;;;;;;;4997639;28;20540;-70
2022/04/08 00:43:18;;;;;;;10.73;2.03;;;;;;;;;;4992637;28;20109;-70
2022/04/08 00:45:43;;;;;;;2.85;1.13;;;;;;;;;;4999591;28;20487;-70
2022/04/08 00:48:09;;;;;;;5.57;1.30;;;;;;;;;;4997013;28;20390;-70
2022/04/08 00:50:35;;;;;;;6.07;1.33;;;;;;;;;;4995475;28;20510;-70
2022/04/08 00:53:01;;;;;;;4.60;1.42;;;;;;;;;;4994855;28;20026;-70
2022/04/08 00:55:26;;;;;;;6.18;1.20;;;;;;;;;;4978149;28;20372;-70
2022/04/08 00:57:51;;;;;;;4.70;1.20;;;;;;;;;;5004968;28;20022;-70
2022/04/08 01:00:16;;;;;;;5.97;0.90;;;;;;;;;;4998924;28;20018;-70
2022/04/08 01:02:42;;;;;;;7.55;1.27;;;;;;;;;;4993146;28;20312;-70
2022/04/08 01:05:09;;;;;;;3.65;0.80;;;;;;;;;;4994301;28;20077;-70
2022/04/08 01:07:34;;;;;;;9.43;1.00;;;;;;;;;;4992899;28;20014;-70
2022/04/08 01:10:00;;;;;;;7.65;1.13;;;;;;;;;;4998446;28;20029;-70
2022/04/08 01:12:25;;;;;;;5.47;0.97;;;;;;;;;;4994772;28;20076;-70
2022/04/08 01:14:59;;;;;;;7.70;1.37;;;;;;;;;;4997098;28;20284;-70
2022/04/08 01:17:25;;;;;;;8.43;1.50;;;;;;;;;;4999437;28;20316;-70
2022/04/08 01:19:50;;;;;;;6.28;1.27;;;;;;;;;;4994237;28;20019;-70
2022/04/08 01:22:17;;;;;;;9.17;2.13;;;;;;;;;;4993478;28;20093;-70
2022/04/08 01:24:45;;;;;;;5.28;1.10;;;;;;;;;;4993254;28;20444;-69
2022/04/08 01:27:10;;;;;;;4.72;1.05;;;;;;;;;;4992179;28;20348;-70
2022/04/08 01:29:36;;;;;;;4.22;1.02;;;;;;;;;;4992049;28;20026;-70
2022/04/08 01:32:01;;;;;;;8.32;1.20;;;;;;;;;;4992312;28;20483;-69
2022/04/08 01:34:26;;;;;;;14.65;1.60;;;;;;;;;;4995758;28;20030;-70
2022/04/08 01:36:51;;;;;;;12.57;1.30;;;;;;;;;;4993185;28;20021;-70
2022/04/08 01:39:16;;;;;;;15.53;1.80;;;;;;;;;;4992147;28;20265;-70
2022/04/08 01:41:41;;;;;;;15.90;2.37;;;;;;;;;;4991902;28;20287;-70
2022/04/08 01:44:07;;;;;;;12.33;1.60;;;;;;;;;;4996484;28;20264;-70
2022/04/08 01:46:32;;;;;;;9.95;2.28;;;;;;;;;;4991556;28;20317;-70
2022/04/08 01:48:57;;;;;;;5.50;1.63;;;;;;;;;;4997674;28;20022;-70
2022/04/08 01:51:23;;;;;;;14.43;2.22;;;;;;;;;;4994234;28;20031;-70
2022/04/08 01:53:48;;;;;;;10.45;2.65;;;;;;;;;;4993289;28;20034;-69
2022/04/08 01:56:14;;;;;;;13.93;2.17;;;;;;;;;;4993377;28;20500;-70
2022/04/08 01:58:39;;;;;;;9.13;1.55;;;;;;;;;;4992811;28;20325;-69
2022/04/08 02:01:04;;;;;;;10.73;2.05;;;;;;;;;;4992519;28;20050;-69
2022/04/08 02:03:29;;;;;;;4.60;1.45;;;;;;;;;;4989531;28;20041;-70
2022/04/08 02:05:55;;;;;;;6.70;1.38;;;;;;;;;;4992713;28;20390;-70
2022/04/08 02:08:20;;;;;;;8.02;2.05;;;;;;;;;;4992153;28;20454;-69
2022/04/08 02:10:45;;;;;;;8.77;1.90;;;;;;;;;;4997818;28;21027;-70
2022/04/08 02:13:10;;;;;;;12.53;1.73;;;;;;;;;;4997644;28;20089;-70
2022/04/08 02:15:35;;;;;;;6.90;2.05;;;;;;;;;;4994367;28;20665;-69
2022/04/08 02:18:04;;;;;;;12.02;2.40;;;;;;;;;;5023081;23;20041;-91
2022/04/08 02:20:38;;;;;;;12.27;2.40;;;;;;;;;;5013225;28;20027;-91
2022/04/08 02:23:04;;;;;;;18.95;2.63;;;;;;;;;;5026824;28;20029;-91
2022/04/08 02:25:33;;;;;;;11.43;2.28;;;;;;;;;;5014294;28;20104;-90
2022/04/08 02:28:02;;;;;;;11.07;2.08;;;;;;;;;;5015233;28;20018;-92
2022/04/08 02:30:27;;;;;;;8.35;2.90;;;;;;;;;;5021810;28;20501;-93
2022/04/08 02:32:52;;;;;;;10.50;2.20;;;;;;;;;;5014366;28;20028;-91
2022/04/08 02:35:21;;;;;;;18.15;3.05;;;;;;;;;;5013531;28;20485;-91
2022/04/08 02:37:56;;;;;;;11.00;2.05;;;;;;;;;;5033883;28;20093;-90
2022/04/08 02:40:46;;;;;;;10.68;2.70;;;;;;;;;;5028160;28;20018;-91
2022/04/08 02:43:10;;;;;;;8.50;1.83;;;;;;;;;;5032214;28;20048;-92
2022/04/08 02:45:36;;;;;;;9.90;2.10;;;;;;;;;;5022232;28;20013;-91
2022/04/08 02:48:02;;;;;;;9.85;3.28;;;;;;;;;;5031009;28;20017;-90
2022/04/08 02:50:27;;;;;;;13.75;2.60;;;;;;;;;;5031858;28;20028;-89
2022/04/08 02:52:53;;;;;;;12.32;2.88;;;;;;;;;;5016076;28;20018;-91
2022/04/08 02:55:18;;;;;;;11.98;4.43;;;;;;;;;;5010033;28;20478;-90
2022/04/08 02:57:50;;;;;;;14.27;3.50;;;;;;;;;;5031005;28;20052;-91
2022/04/08 03:00:19;;;;;;;15.13;3.65;;;;;;;;;;5019283;28;20483;-91
2022/04/08 03:02:48;;;;;;;15.57;4.93;;;;;;;;;;5015424;28;20025;-91
2022/04/08 03:05:14;;;;;;;18.40;4.22;;;;;;;;;;5048248;23;20128;-90
2022/04/08 03:07:46;;;;;;;13.18;4.63;;;;;;;;;;5017203;28;20041;-91
2022/04/08 03:10:11;;;;;;;13.55;4.68;;;;;;;;;;5019345;28;20032;-92
2022/04/08 03:12:41;;;;;;;16.80;5.25;;;;;;;;;;5011874;28;20009;-91
2022/04/08 03:15:09;;;;;;;18.75;5.03;;;;;;;;;;5015736;28;20466;-92
2022/04/08 03:17:38;;;;;;;15.93;6.00;;;;;;;;;;5032876;28;20420;-92
2022/04/08 03:20:04;;;;;;;12.80;5.40;;;;;;;;;;5017268;28;20052;-92
2022/04/08 03:22:29;;;;;;;14.27;5.50;;;;;;;;;;5033227;28;20076;-93
2022/04/08 03:25:24;;;;;;;10.77;4.60;;;;;;;;;;5015313;28;20051;-92
2022/04/08 03:28:00;;;;;;;15.68;5.43;;;;;;;;;;5017659;28;20109;-92
2022/04/08 03:30:41;;;;;;;10.63;3.28;;;;;;;;;;5020760;28;20027;-91
2022/04/08 03:33:07;;;;;;;19.13;5.68;;;;;;;;;;5038163;28;20576;-90
2022/04/08 03:35:36;;;;;;;15.23;5.15;;;;;;;;;;5015529;28;20025;-91
2022/04/08 03:38:06;;;;;;;13.18;4.93;;;;;;;;;;5015983;28;20029;-90
2022/04/08 03:40:33;;;;;;;11.50;5.55;;;;;;;;;;5031319;28;20026;-90
2022/04/08 03:43:02;;;;;;;20.33;5.70;;;;;;;;;;5011760;28;20045;-91
2022/04/08 03:45:28;;;;;;;10.25;4.43;;;;;;;;;;5011636;28;20120;-90
2022/04/08 03:47:53;;;;;;;12.13;4.40;;;;;;;;;;5013260;28;20060;-90
2022/04/08 03:50:19;;;;;;;17.20;4.13;;;;;;;;;;5029151;28;20018;-93
2022/04/08 03:52:44;;;;;;;10.68;4.47;;;;;;;;;;5014006;28;20467;-90
2022/04/08 03:55:10;;;;;;;18.98;4.53;;;;;;;;;;5013173;28;20031;-90
2022/04/08 03:57:35;;;;;;;16.05;4.22;;;;;;;;;;5011908;28;20497;-91
2022/04/08 04:00:21;;;;;;;13.45;4.15;;;;;;;;;;5025271;28;20032;-91
2022/04/08 04:02:47;;;;;;;16.48;3.42;;;;;;;;;;4997319;28;20041;-91
2022/04/08 04:05:13;;;;;;;14.80;4.72;;;;;;;;;;5010394;28;20033;-90
2022/04/08 04:07:38;;;;;;;22.40;4.45;;;;;;;;;;5012585;28;20477;-92
2022/04/08 04:10:03;;;;;;;13.85;3.88;;;;;;;;;;5018521;28;20477;-91
2022/04/08 04:12:29;;;;;;;12.60;4.03;;;;;;;;;;5029856;28;20022;-90
2022/04/08 04:14:56;;;;;;;16.27;3.45;;;;;;;;;;5012194;28;20116;-92
2022/04/08 04:17:22;;;;;;;10.20;3.03;;;;;;;;;;5013743;28;20072;-91
2022/04/08 04:19:48;;;;;;;15.45;3.38;;;;;;;;;;5012781;28;20033;-91
2022/04/08 04:22:22;;;;;;;11.55;3.42;;;;;;;;;;5017744;28;20009;-92
2022/04/08 04:24:47;;;;;;;13.98;4.00;;;;;;;;;;5028562;28;20041;-92
2022/04/08 04:27:15;;;;;;;17.48;4.03;;;;;;;;;;5012709;28;20013;-91
2022/04/08 04:29:40;;;;;;;9.77;3.95;;;;;;;;;;5008003;28;20026;-90
2022/04/08 04:32:06;;;;;;;18.15;4.38;;;;;;;;;;5019213;28;20036;-90
2022/04/08 04:34:38;;;;;;;8.48;3.47;;;;;;;;;;5019686;28;20591;-91
2022/04/08 04:37:08;;;;;;;16.42;3.53;;;;;;;;;;5014018;28;20017;-90
2022/04/08 04:39:34;;;;;;;13.63;3.28;;;;;;;;;;5009203;28;20018;-91
2022/04/08 04:42:27;;;;;;;9.05;4.10;;;;;;;;;;5009636;28;20096;-90
2022/04/08 04:48:35;;;;;;;7.22;3.15;;;;;;;;;;4979223;28;20087;-92
2022/04/08 04:54:52;;;;;;;12.60;6.03;;;;;;;;;;4995995;28;20104;-91
2022/04/08 05:03:26;;;;;;;27.50;9.68;;;;;;;;;;5046820;22;20107;-68
2022/04/08 05:05:53;;;;;;;24.88;11.80;;;;;;;;;;5027806;28;20021;-69
2022/04/08 05:08:18;;;;;;;23.23;11.55;;;;;;;;;;5029976;28;20462;-70
2022/04/08 05:10:44;;;;;;;33.15;12.25;;;;;;;;;;5029523;28;20099;-70
2022/04/08 05:13:09;;;;;;;28.38;12.18;;;;;;;;;;5030736;28;20033;-69
2022/04/08 05:15:38;;;;;;;36.38;14.55;;;;;;;;;;5024271;28;20381;-72
2022/04/08 05:18:04;;;;;;;40.38;16.25;;;;;;;;;;5040317;28;20525;-69
2022/04/08 05:20:29;;;;;;;30.52;14.30;;;;;;;;;;5025013;28;20021;-69
2022/04/08 05:22:55;;;;;;;46.10;16.17;;;;;;;;;;5037024;28;20020;-67
2022/04/08 05:25:20;;;;;;;36.53;13.03;;;;;;;;;;5024384;28;20029;-71
2022/04/08 05:27:45;;;;;;;27.90;12.80;;;;;;;;;;5029987;28;20839;-68
2022/04/08 05:30:18;;;;;;;33.90;15.25;;;;;;;;;;5031698;28;20485;-69
2022/04/08 05:32:43;;;;;;;32.95;14.05;;;;;;;;;;5030457;28;20063;-67
2022/04/08 05:35:09;;;;;;;32.45;12.38;;;;;;;;;;5024412;28;20469;-69
2022/04/08 05:37:42;;;;;;;28.58;12.10;;;;;;;;;;5002874;28;20032;-69
2022/04/08 05:40:08;;;;;;;28.23;11.60;;;;;;;;;;5032364;28;20362;-68
2022/04/08 05:42:34;;;;;;;23.52;11.77;;;;;;;;;;5035208;28;20477;-68
2022/04/08 05:44:59;;;;;;;30.65;12.02;;;;;;;;;;5018351;28;20025;-71
2022/04/08 05:47:28;;;;;;;25.25;9.02;;;;;;;;;;5038030;28;20028;-68
2022/04/08 05:49:53;;;;;;;22.35;10.30;;;;;;;;;;5022523;28;20091;-71
2022/04/08 05:52:18;;;;;;;31.25;10.93;;;;;;;;;;5030258;28;20549;-69
2022/04/08 05:54:43;;;;;;;25.90;11.63;;;;;;;;;;5026476;28;20438;-72
2022/04/08 05:57:08;;;;;;;27.60;11.20;;;;;;;;;;5020796;28;20292;-71
2022/04/08 05:59:37;;;;;;;26.03;11.10;;;;;;;;;;5025860;28;20584;-70
2022/04/08 06:02:02;;;;;;;29.92;13.95;;;;;;;;;;5033808;28;20276;-68
2022/04/08 06:04:27;;;;;;;31.60;13.30;;;;;;;;;;5029370;28;20437;-72
2022/04/08 06:06:54;;;;;;;30.08;12.48;;;;;;;;;;5031505;28;20368;-70
2022/04/08 06:09:19;;;;;;;25.17;10.63;;;;;;;;;;5027915;28;20048;-69
2022/04/08 06:11:46;;;;;;;20.60;10.17;;;;;;;;;;5033969;28;20481;-68
2022/04/08 06:14:11;;;;;;;25.05;10.52;;;;;;;;;;5029272;28;20329;-70
2022/04/08 06:16:36;;;;;;;28.87;9.83;;;;;;;;;;5034731;28;20025;-71
2022/04/08 06:19:01;;;;;;;28.50;9.95;;;;;;;;;;5033518;28;20278;-71
2022/04/08 06:21:26;;;;;;;21.77;9.13;;;;;;;;;;5032952;28;20508;-68
2022/04/08 06:23:52;;;;;;;19.00;9.83;;;;;;;;;;5018880;28;20291;-72
2022/04/08 06:26:17;;;;;;;21.02;7.85;;;;;;;;;;5031741;28;20811;-70
2022/04/08 06:28:42;;;;;;;15.57;8.03;;;;;;;;;;5031296;28;20029;-71
2022/04/08 06:31:08;;;;;;;20.67;8.32;;;;;;;;;;5037870;28;20290;-67
2022/04/08 06:33:33;;;;;;;20.25;7.95;;;;;;;;;;5030439;28;20469;-69
2022/04/08 06:35:59;;;;;;;13.32;7.60;;;;;;;;;;5027962;28;20013;-67
2022/04/08 06:38:24;;;;;;;19.95;8.52;;;;;;;;;;5037336;28;20097;-70
2022/04/08 06:40:50;;;;;;;18.80;8.10;;;;;;;;;;5010216;28;20100;-67
2022/04/08 06:43:15;;;;;;;17.37;7.80;;;;;;;;;;5026352;28;20087;-68
2022/04/08 06:45:40;;;;;;;23.08;7.90;;;;;;;;;;5028721;28;20606;-67
2022/04/08 06:48:05;;;;;;;19.30;7.18;;;;;;;;;;5027326;28;20041;-68
2022/04/08 06:50:31;;;;;;;15.30;7.57;;;;;;;;;;5029779;28;20096;-69
2022/04/08 06:53:00;;;;;;;18.05;7.93;;;;;;;;;;5011025;28;20018;-68
2022/04/08 06:55:25;;;;;;;13.85;6.95;;;;;;;;;;5030184;28;20013;-68
2022/04/08 06:57:51;;;;;;;15.50;6.10;;;;;;;;;;5029403;28;20018;-68
2022/04/08 07:00:16;;;;;;;19.58;7.88;;;;;;;;;;5026890;28;20028;-68
2022/04/08 07:02:51;;;;;;;22.48;7.63;;;;;;;;;;5026757;28;20108;-68
2022/04/08 07:05:16;;;;;;;15.07;6.68;;;;;;;;;;5020640;28;20026;-67
2022/04/08 07:07:45;;;;;;;12.38;6.90;;;;;;;;;;5025661;28;20083;-71
2022/04/08 07:10:10;;;;;;;10.45;3.95;;;;;;;;;;5019668;28;20037;-68
2022/04/08 07:12:35;;;;;;;12.05;5.45;;;;;;;;;;5022767;28;20485;-67
2022/04/08 07:15:01;;;;;;;14.98;7.55;;;;;;;;;;5029126;28;20477;-69
2022/04/08 07:17:26;;;;;;;21.15;8.82;;;;;;;;;;5017082;28;20065;-71
2022/04/08 07:19:51;;;;;;;19.58;7.53;;;;;;;;;;5029559;28;20029;-68
2022/04/08 07:22:16;;;;;;;16.33;6.60;;;;;;;;;;5030907;28;20059;-69
2022/04/08 07:24:42;;;;;;;14.90;6.13;;;;;;;;;;5030472;28;20288;-67
2022/04/08 07:27:07;;;;;;;16.00;5.37;;;;;;;;;;5030381;28;20272;-70
2022/04/08 07:29:33;;;;;;;9.65;3.83;;;;;;;;;;5012426;28;20260;-68
2022/04/08 07:31:58;;;;;;;13.57;4.63;;;;;;;;;;5012221;28;20056;-68
2022/04/08 07:34:23;;;;;;;9.15;4.63;;;;;;;;;;5027509;28;20163;-68
2022/04/08 07:36:48;;;;;;;7.67;4.20;;;;;;;;;;5029807;28;20459;-70
2022/04/08 07:39:13;;;;;;;9.97;5.80;;;;;;;;;;5037017;28;20314;-67
2022/04/08 07:41:39;;;;;;;19.60;4.53;;;;;;;;;;5036387;28;20609;-70
2022/04/08 07:44:04;;;;;;;4.68;1.77;;;;;;;;;;5012264;28;20040;-68
2022/04/08 07:46:29;;;;;;;11.07;3.22;;;;;;;;;;5012744;28;20497;-69
2022/04/08 07:48:54;;;;;;;8.30;4.28;;;;;;;;;;5023733;28;20037;-68
2022/04/08 07:51:20;;;;;;;16.33;4.07;;;;;;;;;;5027578;28;20025;-68
2022/04/08 07:53:45;;;;;;;13.55;4.72;;;;;;;;;;5027639;28;20022;-73
2022/04/08 07:56:10;;;;;;;7.20;2.70;;;;;;;;;;5027858;28;20108;-69
2022/04/08 07:58:35;;;;;;;11.98;3.60;;;;;;;;;;5027471;28;20016;-72
2022/04/08 08:01:01;;;;;;;8.30;3.22;;;;;;;;;;5025215;28;20018;-67
2022/04/08 08:03:26;;;;;;;15.15;5.50;;;;;;;;;;5025335;28;20444;-68
2022/04/08 08:05:53;;;;;;;7.82;3.03;;;;;;;;;;5026937;28;20028;-73
2022/04/08 08:08:19;;;;;;;6.28;3.60;;;;;;;;;;5024738;28;20372;-71
2022/04/08 08:10:44;;;;;;;7.25;3.78;;;;;;;;;;5026075;28;20208;-72
2022/04/08 08:13:09;;;;;;;15.57;4.45;;;;;;;;;;5026951;28;20029;-68
2022/04/08 08:15:36;;;;;;;5.75;3.40;;;;;;;;;;5026347;28;20382;-71
2022/04/08 08:18:02;;;;;;;11.35;4.60;;;;;;;;;;5024369;28;20039;-68
2022/04/08 08:20:27;;;;;;;15.35;4.03;;;;;;;;;;5027892;28;20524;-72
2022/04/08 08:22:53;;;;;;;10.25;5.00;;;;;;;;;;5023238;28;20084;-68
2022/04/08 08:25:18;;;;;;;11.20;4.13;;;;;;;;;;5030491;28;20067;-68
2022/04/08 08:27:45;;;;;;;12.70;4.05;;;;;;;;;;5031058;28;20102;-69
2022/04/08 08:30:12;;;;;;;9.13;3.85;;;;;;;;;;5031027;28;20041;-69
2022/04/08 08:32:38;;;;;;;11.30;3.53;;;;;;;;;;5038289;28;20017;-68
2022/04/08 08:35:07;;;;;;;6.78;2.90;;;;;;;;;;5024893;28;20024;-69
2022/04/08 08:37:32;;;;;;;7.93;3.25;;;;;;;;;;5030729;28;20482;-71
2022/04/08 08:39:57;;;;;;;6.68;3.25;;;;;;;;;;5030917;28;20040;-69
2022/04/08 08:42:23;;;;;;;7.57;3.20;;;;;;;;;;5033831;28;20469;-72
2022/04/08 08:44:48;;;;;;;15.13;3.13;;;;;;;;;;5031502;28;20302;-69
2022/04/08 08:47:14;;;;;;;27.63;4.10;;;;;;;;;;5033011;28;20569;-69
2022/04/08 08:49:42;;;;;;;11.63;4.05;;;;;;;;;;5031067;28;20021;-72
2022/04/08 08:52:09;;;;;;;12.80;3.30;;;;;;;;;;5031486;28;20026;-74
2022/04/08 08:54:35;;;;;;;6.53;3.45;;;;;;;;;;5030148;28;20084;-70
2022/04/08 08:57:01;;;;;;;10.10;3.30;;;;;;;;;;5032192;28;20100;-69
2022/04/08 08:59:28;;;;;;;7.95;3.50;;;;;;;;;;5029335;28;20010;-69
2022/04/08 09:01:59;;;;;;;8.43;3.15;;;;;;;;;;5031106;28;20035;-69
2022/04/08 09:04:26;;;;;;;9.52;3.22;;;;;;;;;;5033017;28;20108;-71
2022/04/08 09:06:51;;;;;;;7.80;2.60;;;;;;;;;;5030670;28;20456;-69
2022/04/08 09:09:26;;;;;;;8.50;3.30;;;;;;;;;;5032898;28;20101;-69
2022/04/08 09:11:51;;;;;;;9.00;3.05;;;;;;;;;;5027243;28;20120;-68
2022/04/08 09:14:25;;;;;;;11.02;3.00;;;;;;;;;;5030543;28;20329;-72
2022/04/08 09:16:58;;;;;;;11.38;3.72;;;;;;;;;;5030669;28;20077;-72
2022/04/08 09:19:24;;;;;;;6.75;2.38;;;;;;;;;;5031473;28;20021;-69
2022/04/08 09:21:50;;;;;;;8.15;2.90;;;;;;;;;;5031707;28;20021;-69
2022/04/08 09:24:15;;;;;;;8.13;3.92;;;;;;;;;;5028151;28;20112;-68
2022/04/08 09:26:40;;;;;;;8.18;2.58;;;;;;;;;;5029943;28;20329;-70
2022/04/08 09:29:05;;;;;;;6.30;2.93;;;;;;;;;;5012442;28;20021;-69
2022/04/08 09:31:32;;;;;;;7.53;2.90;;;;;;;;;;5026882;28;20268;-72
2022/04/08 09:33:57;;;;;;;2.50;1.38;;;;;;;;;;5032732;28;20017;-69
2022/04/08 09:36:26;;;;;;;8.98;3.20;;;;;;;;;;5031576;28;20528;-69
2022/04/08 09:38:51;;;;;;;11.90;3.50;;;;;;;;;;5032088;28;20025;-69
2022/04/08 09:41:16;;;;;;;10.80;2.90;;;;;;;;;;5024375;28;20021;-68
2022/04/08 09:43:41;;;;;;;8.73;2.43;;;;;;;;;;5032564;28;20047;-69
2022/04/08 09:46:17;;;;;;;7.27;2.80;;;;;;;;;;5026379;28;20299;-69
2022/04/08 09:48:42;;;;;;;6.97;2.80;;;;;;;;;;5030647;28;20639;-69
2022/04/08 09:51:09;;;;;;;2.88;1.25;;;;;;;;;;5034496;28;20021;-70
2022/04/08 09:53:36;;;;;;;6.40;2.78;;;;;;;;;;5031072;28;20017;-69
2022/04/08 09:56:02;;;;;;;7.75;2.28;;;;;;;;;;5028367;28;21267;-69
2022/04/08 09:58:30;;;;;;;11.25;3.60;;;;;;;;;;5030793;28;20512;-72
2022/04/08 10:00:55;;;;;;;9.43;2.90;;;;;;;;;;5026142;28;20049;-71
2022/04/08 10:03:20;;;;;;;6.95;3.08;;;;;;;;;;5011664;28;20171;-69
2022/04/08 10:05:46;;;;;;;9.30;2.95;;;;;;;;;;5021714;28;20025;-70
2022/04/08 10:08:12;;;;;;;5.00;2.92;;;;;;;;;;5031112;28;20588;-68
2022/04/08 10:10:45;;;;;;;5.18;2.80;;;;;;;;;;5029853;28;20093;-71
2022/04/08 10:13:30;;;;;;;10.90;3.47;;;;;;;;;;5029484;28;20079;-70
2022/04/08 10:16:07;;;;;;;7.90;3.33;;;;;;;;;;5029981;28;20547;-70
2022/04/08 10:18:37;;;;;;;7.65;3.47;;;;;;;;;;5024822;28;20032;-71
2022/04/08 10:21:02;;;;;;;14.77;3.83;;;;;;;;;;5030033;28;20744;-70
2022/04/08 10:23:35;;;;;;;6.63;2.45;;;;;;;;;;5030646;28;20026;-70
2022/04/08 10:26:00;;;;;;;5.60;2.17;;;;;;;;;;5031292;28;20033;-70
2022/04/08 10:28:33;;;;;;;10.13;2.47;;;;;;;;;;5029314;28;20018;-69
2022/04/08 10:30:59;;;;;;;11.15;3.35;;;;;;;;;;5026705;28;20029;-72
2022/04/08 10:33:26;;;;;;;11.38;2.95;;;;;;;;;;5024108;28;20022;-70
2022/04/08 10:35:55;;;;;;;5.07;2.53;;;;;;;;;;5030363;28;20028;-70
2022/04/08 10:38:20;;;;;;;7.82;2.00;;;;;;;;;;5031674;28;20014;-70
2022/04/08 10:40:53;;;;;;;9.32;2.33;;;;;;;;;;5027339;28;20025;-70
2022/04/08 10:43:18;;;;;;;4.63;2.38;;;;;;;;;;5026769;28;20048;-70
2022/04/08 10:45:57;;;;;;;10.85;2.88;;;;;;;;;;5029872;28;20025;-71
2022/04/08 10:48:23;;;;;;;6.40;2.40;;;;;;;;;;5031120;28;20018;-70
2022/04/08 10:50:50;;;;;;;6.63;2.70;;;;;;;;;;5028347;28;20494;-69
2022/04/08 10:53:21;;;;;;;5.32;1.88;;;;;;;;;;5025299;28;20034;-69
2022/04/08 10:56:07;;;;;;;5.40;2.60;;;;;;;;;;5031601;28;20322;-69
2022/04/08 10:58:34;;;;;;;9.55;2.58;;;;;;;;;;5028467;28;20096;-70
2022/04/08 11:00:59;;;;;;;15.23;2.70;;;;;;;;;;5024970;28;20017;-70
2022/04/08 11:03:25;;;;;;;3.85;2.53;;;;;;;;;;5033193;28;20568;-70
2022/04/08 11:05:51;;;;;;;4.88;2.55;;;;;;;;;;5028455;28;20037;-68
2022/04/08 11:08:16;;;;;;;10.07;3.28;;;;;;;;;;5030274;28;20482;-68
2022/04/08 11:10:41;;;;;;;11.07;3.53;;;;;;;;;;5029578;28;20131;-68
2022/04/08 11:13:10;;;;;;;5.90;2.83;;;;;;;;;;5029899;28;20048;-71
2022/04/08 11:18:00;;;;;;;9.00;4.25;;;;;;;;;;5044302;23;20033;-69
2022/04/08 11:20:26;;;;;;;12.80;3.97;;;;;;;;;;5031704;28;20021;-69
2022/04/08 11:22:52;;;;;;;13.80;3.97;;;;;;;;;;5030571;28;20466;-69
2022/04/08 11:25:19;;;;;;;12.02;3.88;;;;;;;;;;5033138;28;20025;-69
2022/04/08 11:27:44;;;;;;;9.27;3.08;;;;;;;;;;5030513;28;20124;-69
2022/04/08 11:30:09;;;;;;;6.47;2.67;;;;;;;;;;5028896;28;20065;-69
2022/04/08 11:32:35;;;;;;;9.73;3.08;;;;;;;;;;5029594;28;20017;-69
2022/04/08 11:35:09;;;;;;;7.45;2.60;;;;;;;;;;5027197;28;20025;-69
2022/04/08 11:37:34;;;;;;;8.95;3.25;;;;;;;;;;5029100;28;20068;-69
2022/04/08 11:40:00;;;;;;;7.03;3.08;;;;;;;;;;5027727;28;20022;-69
2022/04/08 11:42:26;;;;;;;9.45;2.80;;;;;;;;;;5030132;28;20013;-69
2022/04/08 11:44:51;;;;;;;14.93;3.85;;;;;;;;;;5028280;28;20469;-69
2022/04/08 11:47:17;;;;;;;7.13;3.08;;;;;;;;;;5028913;28;20420;-69
2022/04/08 11:49:43;;;;;;;12.88;3.67;;;;;;;;;;5028696;28;20108;-69
2022/04/08 11:52:09;;;;;;;9.88;4.22;;;;;;;;;;5030094;28;20030;-69
2022/04/08 11:54:38;;;;;;;16.40;4.57;;;;;;;;;;5028970;28;20057;-69
2022/04/08 11:57:05;;;;;;;15.68;4.68;;;;;;;;;;5026689;28;20076;-69
2022/04/08 11:59:30;;;;;;;11.88;4.50;;;;;;;;;;5030498;28;20508;-70
2022/04/08 12:01:59;;;;;;;13.85;5.65;;;;;;;;;;5029251;28;20033;-70
2022/04/08 12:04:24;;;;;;;12.75;4.35;;;;;;;;;;5036026;28;20101;-70
2022/04/08 12:06:50;;;;;;;10.15;4.30;;;;;;;;;;5035748;28;20108;-70
2022/04/08 12:09:16;;;;;;;9.95;5.07;;;;;;;;;;5035245;28;20048;-70
2022/04/08 12:11:42;;;;;;;14.88;4.63;;;;;;;;;;5034272;28;20060;-69
2022/04/08 12:14:09;;;;;;;15.60;5.78;;;;;;;;;;5034015;28;20513;-69
2022/04/08 12:16:35;;;;;;;12.55;4.72;;;;;;;;;;5034142;28;20428;-70
2022/04/08 12:19:00;;;;;;;11.20;4.55;;;;;;;;;;5032277;28;20052;-69
2022/04/08 12:21:27;;;;;;;8.88;5.30;;;;;;;;;;5035571;28;20148;-69
2022/04/08 12:23:56;;;;;;;11.00;5.93;;;;;;;;;;5033613;28;20536;-69
2022/04/08 12:26:25;;;;;;;7.55;5.05;;;;;;;;;;5033678;28;20057;-70
2022/04/08 12:28:50;;;;;;;19.42;5.70;;;;;;;;;;5031514;28;20021;-70
2022/04/08 12:31:21;;;;;;;11.80;5.50;;;;;;;;;;5031569;28;20035;-69
2022/04/08 12:33:47;;;;;;;12.95;4.82;;;;;;;;;;5043152;28;20501;-70
2022/04/08 12:36:12;;;;;;;17.50;5.00;;;;;;;;;;5039275;28;20024;-70
2022/04/08 12:38:42;;;;;;;13.85;5.18;;;;;;;;;;5036344;28;20101;-69
2022/04/08 12:41:08;;;;;;;18.40;5.47;;;;;;;;;;5014064;28;20021;-69
2022/04/08 12:43:33;;;;;;;13.70;5.40;;;;;;;;;;5032499;28;20272;-69
2022/04/08 12:45:59;;;;;;;12.30;4.93;;;;;;;;;;5044614;28;20366;-69
2022/04/08 12:48:24;;;;;;;12.98;5.93;;;;;;;;;;5017663;28;20033;-69
2022/04/08 12:50:49;;;;;;;21.23;5.78;;;;;;;;;;5032192;28;20075;-69
2022/04/08 12:53:14;;;;;;;12.30;4.45;;;;;;;;;;5038596;28;20410;-69
2022/04/08 12:55:39;;;;;;;11.68;5.60;;;;;;;;;;5048022;28;20017;-69
2022/04/08 12:58:05;;;;;;;16.02;5.18;;;;;;;;;;5026682;28;20018;-69
2022/04/08 13:00:30;;;;;;;11.93;5.15;;;;;;;;;;5028878;28;20062;-70
2022/04/08 13:02:56;;;;;;;11.35;4.93;;;;;;;;;;5033756;28;20025;-70
2022/04/08 13:05:22;;;;;;;9.30;5.22;;;;;;;;;;5029132;28;20057;-69
2022/04/08 13:07:47;;;;;;;12.85;6.05;;;;;;;;;;5032292;28;20476;-69
2022/04/08 13:10:12;;;;;;;11.27;5.60;;;;;;;;;;5033176;28;20389;-69
2022/04/08 13:12:37;;;;;;;12.50;5.00;;;;;;;;;;5021536;28;20128;-69
2022/04/08 13:15:07;;;;;;;14.60;6.05;;;;;;;;;;5030391;28;20806;-70
2022/04/08 13:17:33;;;;;;;8.60;5.00;;;;;;;;;;5032413;28;20049;-69
2022/04/08 13:19:58;;;;;;;12.15;5.68;;;;;;;;;;5030801;28;20053;-70
2022/04/08 13:22:24;;;;;;;14.25;6.20;;;;;;;;;;5030587;28;20496;-70
2022/04/08 13:24:49;;;;;;;20.17;6.43;;;;;;;;;;5026794;28;20026;-69
2022/04/08 13:27:14;;;;;;;18.43;5.87;;;;;;;;;;5031168;28;20029;-70
2022/04/08 13:29:39;;;;;;;13.13;5.47;;;;;;;;;;5012863;28;20343;-68
2022/04/08 13:32:04;;;;;;;16.03;5.70;;;;;;;;;;5031174;28;20066;-68
2022/04/08 13:34:30;;;;;;;12.15;5.57;;;;;;;;;;5029979;28;20284;-68
2022/04/08 13:36:55;;;;;;;12.00;5.38;;;;;;;;;;5030147;28;20466;-68
2022/04/08 13:39:21;;;;;;;11.23;5.30;;;;;;;;;;5030785;28;20021;-69
2022/04/08 13:41:49;;;;;;;22.92;6.57;;;;;;;;;;5025049;28;20279;-69
2022/04/08 13:44:17;;;;;;;11.63;6.13;;;;;;;;;;5026978;28;20024;-70
2022/04/08 13:46:42;;;;;;;14.52;5.45;;;;;;;;;;5032241;28;20013;-70
2022/04/08 13:49:08;;;;;;;14.50;5.93;;;;;;;;;;5028649;28;20363;-68
2022/04/08 13:51:33;;;;;;;12.35;5.32;;;;;;;;;;5030989;28;20021;-68
2022/04/08 13:53:58;;;;;;;12.80;5.87;;;;;;;;;;5027015;28;20371;-68
2022/04/08 13:56:24;;;;;;;13.73;5.78;;;;;;;;;;5030320;28;20280;-68
2022/04/08 13:58:49;;;;;;;21.00;6.50;;;;;;;;;;5029826;28;20851;-68
2022/04/08 14:01:14;;;;;;;12.48;5.45;;;;;;;;;;5028353;28;20100;-68
2022/04/08 14:03:40;;;;;;;16.75;6.53;;;;;;;;;;5031293;28;20028;-71
2022/04/08 14:06:05;;;;;;;12.20;6.20;;;;;;;;;;5022479;28;20025;-70
2022/04/08 14:08:30;;;;;;;13.98;5.93;;;;;;;;;;5025387;28;20744;-68
2022/04/08 14:10:55;;;;;;;16.00;5.82;;;;;;;;;;5028848;28;20017;-69
2022/04/08 14:13:21;;;;;;;13.57;5.07;;;;;;;;;;5030043;28;20101;-68
2022/04/08 14:15:46;;;;;;;20.33;5.97;;;;;;;;;;5028398;28;20021;-68
2022/04/08 14:18:11;;;;;;;16.23;6.60;;;;;;;;;;5030684;28;20076;-68
2022/04/08 14:20:36;;;;;;;10.63;5.50;;;;;;;;;;5033417;28;20325;-71
2022/04/08 14:23:03;;;;;;;13.98;5.43;;;;;;;;;;5011708;28;20036;-69
2022/04/08 14:25:28;;;;;;;14.48;4.80;;;;;;;;;;5028812;28;20025;-68
2022/04/08 14:27:53;;;;;;;13.55;5.57;;;;;;;;;;5034676;28;20035;-69
2022/04/08 14:30:18;;;;;;;16.13;6.75;;;;;;;;;;5024873;28;20025;-69
2022/04/08 14:32:45;;;;;;;11.27;4.50;;;;;;;;;;5029636;28;20033;-70
2022/04/08 14:35:11;;;;;;;9.75;4.35;;;;;;;;;;5025153;28;20029;-70
2022/04/08 14:37:36;;;;;;;10.57;5.38;;;;;;;;;;5030253;28;20485;-70
2022/04/08 14:40:01;;;;;;;6.37;2.40;;;;;;;;;;5032489;28;20092;-69
2022/04/08 14:42:26;;;;;;;7.22;3.05;;;;;;;;;;5028798;28;20271;-69
2022/04/08 14:44:51;;;;;;;5.18;1.02;;;;;;;;;;5001593;28;20183;-69
2022/04/08 14:47:17;;;;;;;3.28;1.30;;;;;;;;;;5026429;28;20028;-69